Main page
METAR-TAF:

METAR-TAF

Airports :

Pilanesberg International Airport

Sun City, South Africa

latitude: 25-20-01S, longitude: 027-10-24E, elevation: 1040 m

Current weather observation

The report was made 11 hours and 5 minutes ago, at 14:00 UTC
Wind 8 kt from the East
Temperature 22°C
Humidity 31%
Pressure 1030 hPa

METAR: FAPN 231400Z AUTO 08008KT //// // ////// 22/04 Q1030

Time: 03:05 (01:05 UTC)


TAF: missing

Weather observations and forecasts of more than 4000 airports (METAR and TAF reports).

The available stations are represented by yellow and red dots on the map.

Hover mouse over dot to see the name of the station.

Then click to see weather observations and forecasts.

To change the map : click on the green buttons with a black cross to zoom in, on the green button with a dash to zoom out, or on the green arrows for adjacent maps.


METAR-TAF: